Time;durP1;ratioP1;P1;durP2;ratioP2;P2;SDS_P1;SDS_P2;PMS_P1;PMS_P2;Temp;Humidity;BMP_temperature;BMP_pressure;BME280_temperature;BME280_humidity;BME280_pressure;Samples;Min_cycle;Max_cycle;Signal;HPM_P1;HPM_P2
2022/07/08 00:02:26;;;;;;;1.73;1.40;;;17.10;59.70;;;;;;938978;148;27388;-70
2022/07/08 00:04:53;;;;;;;1.50;1.20;;;17.00;59.70;;;;;;941402;148;27286;-70
2022/07/08 00:07:19;;;;;;;4.63;1.37;;;17.00;59.90;;;;;;939551;148;27341;-70
2022/07/08 00:09:46;;;;;;;2.67;1.43;;;16.90;59.90;;;;;;941068;148;27337;-71
2022/07/08 00:12:12;;;;;;;3.47;1.40;;;16.90;60.00;;;;;;940225;148;27317;-72
2022/07/08 00:14:39;;;;;;;4.40;1.53;;;16.90;60.10;;;;;;939587;148;27393;-71
2022/07/08 00:17:06;;;;;;;4.23;1.43;;;16.80;60.20;;;;;;940858;148;28384;-71
2022/07/08 00:19:32;;;;;;;2.70;1.37;;;16.70;60.30;;;;;;941456;148;27451;-71
2022/07/08 00:21:59;;;;;;;3.63;1.23;;;16.70;60.30;;;;;;939644;148;27283;-71
2022/07/08 00:24:25;;;;;;;3.27;1.03;;;16.60;60.60;;;;;;939957;148;27291;-71
2022/07/08 00:26:52;;;;;;;3.63;1.30;;;16.60;60.60;;;;;;940193;148;27393;-70
2022/07/08 00:29:19;;;;;;;2.20;1.20;;;16.60;61.60;;;;;;939723;148;27385;-70
2022/07/08 00:31:45;;;;;;;2.97;1.67;;;16.60;61.00;;;;;;939244;148;27343;-70
2022/07/08 00:34:12;;;;;;;2.40;1.13;;;16.50;61.10;;;;;;938594;148;27448;-71
2022/07/08 00:36:38;;;;;;;2.52;1.30;;;16.60;62.10;;;;;;940366;148;27341;-71
2022/07/08 00:39:05;;;;;;;4.10;1.80;;;16.60;61.40;;;;;;941889;147;27359;-74
2022/07/08 00:41:32;;;;;;;3.73;1.30;;;16.60;61.40;;;;;;939056;148;27509;-71
2022/07/08 00:43:58;;;;;;;2.55;1.37;;;16.70;61.40;;;;;;937497;148;28430;-70
2022/07/08 00:46:25;;;;;;;5.10;1.40;;;16.70;61.40;;;;;;946908;150;27309;-70
2022/07/08 00:48:51;;;;;;;4.17;1.50;;;16.80;61.40;;;;;;946421;150;27357;-70
2022/07/08 00:51:18;;;;;;;4.67;1.30;;;16.80;61.40;;;;;;945731;150;28018;-74
2022/07/08 00:53:44;;;;;;;3.57;1.57;;;16.90;61.40;;;;;;944584;150;27372;-70
2022/07/08 00:56:11;;;;;;;3.20;1.30;;;17.00;61.40;;;;;;944245;148;27407;-70
2022/07/08 00:58:38;;;;;;;1.80;1.10;;;17.00;61.30;;;;;;945974;150;27908;-70
2022/07/08 01:01:04;;;;;;;6.12;1.37;;;17.10;61.20;;;;;;944076;150;27356;-70
2022/07/08 01:03:31;;;;;;;2.50;1.10;;;17.10;61.10;;;;;;945060;150;27423;-74
2022/07/08 01:05:57;;;;;;;1.75;1.12;;;17.20;61.00;;;;;;947768;150;27520;-70
2022/07/08 01:08:24;;;;;;;2.67;1.20;;;17.20;60.80;;;;;;946623;150;27758;-71
2022/07/08 01:10:51;;;;;;;2.30;1.33;;;17.30;60.80;;;;;;947520;150;27249;-70
2022/07/08 01:13:17;;;;;;;2.30;1.20;;;17.30;60.70;;;;;;944718;150;27313;-71
2022/07/08 01:15:44;;;;;;;3.13;1.40;;;17.30;60.70;;;;;;946272;148;27340;-70
2022/07/08 01:18:10;;;;;;;4.55;1.50;;;17.30;60.70;;;;;;947309;148;27406;-74
2022/07/08 01:20:40;;;;;;;3.42;1.27;;;17.20;60.40;;;;;;926376;150;27811;-70
2022/07/08 01:23:03;;;;;;;1.57;1.30;;;17.20;60.40;;;;;;932142;151;27684;-71
2022/07/08 01:25:30;;;;;;;3.37;1.57;;;17.20;60.40;;;;;;927729;153;27430;-70
2022/07/08 01:27:57;;;;;;;1.60;1.17;;;17.10;60.30;;;;;;922002;151;27318;-71
2022/07/08 01:30:23;;;;;;;2.47;1.00;;;17.10;60.30;;;;;;944982;149;27370;-73
2022/07/08 01:32:50;;;;;;;2.93;1.33;;;17.00;60.30;;;;;;943906;150;27437;-70
2022/07/08 01:35:16;;;;;;;4.30;1.30;;;16.90;60.40;;;;;;944884;149;27795;-70
2022/07/08 01:37:44;;;;;;;3.63;1.13;;;16.90;60.70;;;;;;945355;148;27370;-71
2022/07/08 01:40:10;;;;;;;1.60;1.10;;;16.80;60.80;;;;;;946474;150;27327;-71
2022/07/08 01:42:36;;;;;;;2.53;1.30;;;16.80;61.00;;;;;;950691;146;27368;-71
2022/07/08 01:45:03;;;;;;;3.13;1.33;;;16.80;61.20;;;;;;954267;146;27444;-73
2022/07/08 01:47:30;;;;;;;2.97;1.00;;;16.80;61.30;;;;;;953875;146;27359;-71
2022/07/08 01:49:56;;;;;;;4.07;1.50;;;16.80;61.40;;;;;;953562;146;27428;-72
2022/07/08 01:52:23;;;;;;;3.37;2.17;;;16.80;61.40;;;;;;942966;148;27462;-71
2022/07/08 01:54:50;;;;;;;1.70;1.27;;;16.80;61.50;;;;;;939603;149;27903;-71
2022/07/08 01:57:16;;;;;;;5.57;1.50;;;16.80;61.60;;;;;;957320;146;27442;-72
2022/07/08 01:59:42;;;;;;;3.43;1.57;;;16.90;61.60;;;;;;935414;149;27394;-70
2022/07/08 02:02:09;;;;;;;2.40;1.33;;;16.90;61.60;;;;;;952112;146;27477;-71
2022/07/08 02:04:36;;;;;;;3.20;1.10;;;16.90;61.60;;;;;;950303;149;27311;-70
2022/07/08 02:07:02;;;;;;;2.80;1.50;;;17.00;61.60;;;;;;949434;149;27427;-71
2022/07/08 02:09:29;;;;;;;3.27;1.20;;;17.00;61.60;;;;;;950709;146;27383;-71
2022/07/08 02:14:40;;;;;;;3.57;1.30;;;17.00;61.40;;;;;;948386;149;27352;-70
2022/07/08 02:17:07;;;;;;;2.93;1.30;;;17.10;61.40;;;;;;948627;149;27374;-69
2022/07/08 02:19:34;;;;;;;1.62;1.17;;;17.10;61.30;;;;;;950817;146;27422;-68
2022/07/08 02:22:00;;;;;;;5.15;1.45;;;17.10;61.40;;;;;;950976;146;27750;-69
2022/07/08 02:24:27;;;;;;;3.53;1.40;;;17.10;61.30;;;;;;950923;149;27348;-72
2022/07/08 02:26:53;;;;;;;3.20;1.30;;;17.10;61.30;;;;;;950490;149;27450;-72
2022/07/08 02:29:20;;;;;;;1.72;1.30;;;17.10;61.30;;;;;;950324;149;27648;-69
2022/07/08 02:31:46;;;;;;;1.92;1.10;;;17.10;61.30;;;;;;953345;149;27311;-68
2022/07/08 02:34:13;;;;;;;2.60;1.40;;;17.10;61.30;;;;;;951334;146;27412;-69
2022/07/08 02:36:40;;;;;;;1.87;1.32;;;17.10;61.30;;;;;;951721;146;27761;-69
2022/07/08 02:39:07;;;;;;;3.58;1.40;;;17.10;61.30;;;;;;952189;149;27360;-71
2022/07/08 02:41:33;;;;;;;2.77;1.40;;;17.10;61.30;;;;;;951056;149;27534;-69
2022/07/08 02:44:00;;;;;;;2.42;1.25;;;17.10;61.30;;;;;;944627;149;27360;-69
2022/07/08 02:46:26;;;;;;;2.43;1.20;;;17.10;61.30;;;;;;943806;150;27371;-69
2022/07/08 02:48:53;;;;;;;2.93;1.10;;;17.10;61.30;;;;;;945204;150;27403;-73
2022/07/08 02:51:20;;;;;;;2.90;1.00;;;17.10;61.40;;;;;;944203;147;27837;-73
2022/07/08 02:53:46;;;;;;;2.50;1.45;;;17.10;61.30;;;;;;944563;150;27309;-72
2022/07/08 02:56:13;;;;;;;2.77;1.10;;;17.10;61.30;;;;;;946447;147;27389;-73
2022/07/08 02:58:39;;;;;;;1.93;1.03;;;17.10;61.30;;;;;;944813;149;27414;-73
2022/07/08 03:01:06;;;;;;;2.27;1.40;;;17.10;61.40;;;;;;942245;150;27333;-73
2022/07/08 03:03:32;;;;;;;2.80;1.60;;;17.10;61.30;;;;;;945276;149;27355;-73
2022/07/08 03:05:59;;;;;;;2.63;1.00;;;17.20;61.40;;;;;;943136;150;27307;-73
2022/07/08 03:08:26;;;;;;;1.50;1.10;;;17.20;61.40;;;;;;945015;150;27361;-73
2022/07/08 03:10:52;;;;;;;2.20;1.40;;;17.20;61.30;;;;;;943031;147;27377;-73
2022/07/08 03:13:19;;;;;;;1.30;1.20;;;17.10;61.40;;;;;;943887;150;27309;-73
2022/07/08 03:15:45;;;;;;;2.83;1.20;;;17.20;61.30;;;;;;942524;150;27340;-73
2022/07/08 03:18:12;;;;;;;2.10;1.23;;;17.20;61.40;;;;;;942607;150;27385;-72
2022/07/08 03:20:38;;;;;;;2.35;1.02;;;17.10;61.30;;;;;;943982;147;27361;-73
2022/07/08 03:23:05;;;;;;;2.52;1.42;;;17.20;61.40;;;;;;943991;150;27789;-73
2022/07/08 03:25:33;;;;;;;3.25;1.30;;;17.10;61.30;;;;;;944233;147;27387;-73
2022/07/08 03:27:58;;;;;;;3.20;1.50;;;17.20;61.40;;;;;;945397;150;27324;-73
2022/07/08 03:30:25;;;;;;;3.13;1.30;;;17.20;61.40;;;;;;945245;147;27321;-72
2022/07/08 03:32:51;;;;;;;3.20;1.30;;;17.20;61.40;;;;;;941141;150;27345;-72
2022/07/08 03:35:18;;;;;;;2.77;1.40;;;17.20;61.40;;;;;;945247;149;27389;-73
2022/07/08 03:37:45;;;;;;;1.23;1.00;;;17.20;62.20;;;;;;943471;147;27459;-74
2022/07/08 03:42:56;;;;;;;1.80;1.17;;;17.20;61.40;;;;;;948806;148;27343;-73
2022/07/08 03:45:22;;;;;;;1.13;1.03;;;17.20;61.30;;;;;;960546;148;27487;-72
2022/07/08 03:47:49;;;;;;;1.30;1.20;;;17.20;61.40;;;;;;958346;145;27339;-71
2022/07/08 03:50:16;;;;;;;1.40;1.30;;;17.30;61.50;;;;;;958737;147;27365;-74
2022/07/08 03:52:42;;;;;;;2.92;1.15;;;17.30;61.50;;;;;;960051;145;27476;-73
2022/07/08 03:55:09;;;;;;;3.67;1.27;;;17.20;61.40;;;;;;958273;147;27289;-71
2022/07/08 03:57:35;;;;;;;1.20;1.10;;;17.30;61.40;;;;;;960688;147;27315;-73
2022/07/08 04:00:02;;;;;;;4.70;1.70;;;17.30;61.40;;;;;;959313;147;27350;-71
2022/07/08 04:02:28;;;;;;;1.77;1.07;;;17.30;60.70;;;;;;959455;147;27698;-73
2022/07/08 04:04:55;;;;;;;3.13;1.43;;;17.30;61.40;;;;;;958805;147;28555;-72
2022/07/08 04:07:22;;;;;;;2.75;1.30;;;17.30;61.40;;;;;;958783;147;27435;-73
2022/07/08 04:09:48;;;;;;;1.50;1.00;;;17.30;61.40;;;;;;958766;147;27401;-73
2022/07/08 04:12:15;;;;;;;4.45;1.60;;;17.30;61.40;;;;;;960745;145;27336;-71
2022/07/08 04:14:41;;;;;;;2.77;1.43;;;17.40;61.40;;;;;;959262;145;27434;-72
2022/07/08 04:17:08;;;;;;;3.47;1.30;;;17.40;61.50;;;;;;959388;147;27349;-73
2022/07/08 04:19:35;;;;;;;2.05;1.15;;;17.40;61.50;;;;;;960128;145;27314;-73
2022/07/08 04:22:01;;;;;;;1.73;1.03;;;17.40;61.50;;;;;;960096;147;27342;-73
2022/07/08 04:24:28;;;;;;;1.17;0.95;;;17.40;61.60;;;;;;959262;147;27404;-72
2022/07/08 04:26:54;;;;;;;3.37;1.20;;;17.40;61.50;;;;;;960051;147;27365;-73
2022/07/08 04:29:22;;;;;;;3.80;0.90;;;17.50;61.70;;;;;;961211;147;27341;-73
2022/07/08 04:31:48;;;;;;;3.47;1.40;;;17.50;61.60;;;;;;961044;147;27331;-74
2022/07/08 04:34:14;;;;;;;1.60;1.10;;;17.50;61.60;;;;;;959389;145;27313;-73
2022/07/08 04:36:41;;;;;;;2.85;1.12;;;17.60;61.60;;;;;;959939;147;27396;-73
2022/07/08 04:39:07;;;;;;;0.85;0.70;;;17.60;61.60;;;;;;959849;145;27323;-72
2022/07/08 04:41:34;;;;;;;2.87;1.00;;;17.70;61.60;;;;;;960633;147;27444;-73
2022/07/08 04:44:00;;;;;;;2.67;1.40;;;17.70;61.40;;;;;;953718;147;28402;-74
2022/07/08 04:46:27;;;;;;;2.73;0.83;;;17.80;61.50;;;;;;950801;149;27341;-73
2022/07/08 04:48:54;;;;;;;1.50;0.95;;;17.80;61.40;;;;;;950732;149;27276;-72
2022/07/08 04:51:20;;;;;;;1.52;1.15;;;17.80;61.30;;;;;;948789;146;27376;-72
2022/07/08 04:53:47;;;;;;;4.83;1.32;;;17.90;61.30;;;;;;949416;149;27892;-74
2022/07/08 04:56:13;;;;;;;2.83;1.12;;;17.90;61.20;;;;;;951560;149;27361;-74
2022/07/08 04:58:40;;;;;;;2.10;1.20;;;18.00;61.20;;;;;;950004;149;27381;-74
2022/07/08 05:01:07;;;;;;;2.10;1.22;;;18.00;61.20;;;;;;949531;149;27370;-73
2022/07/08 05:03:33;;;;;;;1.98;1.52;;;18.00;61.10;;;;;;950003;149;27347;-73
2022/07/08 05:06:00;;;;;;;2.92;1.20;;;18.10;61.10;;;;;;950341;149;27478;-73
2022/07/08 05:08:26;;;;;;;3.35;1.10;;;18.10;61.10;;;;;;949927;146;27359;-74
2022/07/08 05:10:53;;;;;;;2.02;1.15;;;18.10;61.00;;;;;;948984;149;27274;-73
2022/07/08 05:13:20;;;;;;;2.65;1.20;;;18.20;61.00;;;;;;950346;149;27372;-74
2022/07/08 05:15:46;;;;;;;2.42;1.12;;;18.20;60.90;;;;;;950881;149;27360;-72
2022/07/08 05:18:14;;;;;;;2.90;1.92;;;18.30;60.90;;;;;;949318;149;27464;-71
2022/07/08 05:20:39;;;;;;;2.20;1.35;;;18.30;60.90;;;;;;951055;149;27400;-73
2022/07/08 05:23:06;;;;;;;2.80;1.22;;;18.40;60.90;;;;;;951420;146;27333;-73
2022/07/08 05:25:32;;;;;;;3.45;1.22;;;18.40;60.80;;;;;;951260;149;27761;-74
2022/07/08 05:27:59;;;;;;;2.95;1.30;;;18.50;60.80;;;;;;950414;149;27365;-74
2022/07/08 05:30:26;;;;;;;2.33;1.20;;;18.60;60.70;;;;;;951697;148;27312;-73
2022/07/08 05:32:52;;;;;;;2.40;1.00;;;18.70;60.70;;;;;;950306;146;27346;-73
2022/07/08 05:35:19;;;;;;;2.10;1.00;;;18.70;60.40;;;;;;950924;146;27711;-74
2022/07/08 05:37:45;;;;;;;3.72;1.20;;;18.80;60.30;;;;;;948314;147;27280;-72
2022/07/08 05:40:12;;;;;;;4.03;1.25;;;18.90;60.10;;;;;;951128;149;27395;-73
2022/07/08 05:42:39;;;;;;;1.80;0.93;;;19.00;60.10;;;;;;949709;149;27398;-73
2022/07/08 05:45:05;;;;;;;3.50;1.20;;;19.00;59.90;;;;;;950700;147;27390;-71
2022/07/08 05:47:32;;;;;;;3.20;1.45;;;19.10;59.70;;;;;;950809;146;27346;-73
2022/07/08 05:49:58;;;;;;;2.90;1.20;;;19.20;59.60;;;;;;950725;146;27344;-73
2022/07/08 05:52:25;;;;;;;1.65;1.10;;;19.20;59.50;;;;;;948243;149;27678;-73
2022/07/08 05:54:52;;;;;;;1.62;0.82;;;19.30;59.60;;;;;;949797;149;27723;-73
2022/07/08 05:57:18;;;;;;;4.17;1.92;;;19.40;59.60;;;;;;949938;146;27423;-72
2022/07/08 05:59:45;;;;;;;1.17;1.07;;;19.40;59.50;;;;;;951109;149;27359;-74
2022/07/08 06:02:11;;;;;;;1.70;0.80;;;19.50;59.40;;;;;;948742;146;28015;-73
2022/07/08 06:04:38;;;;;;;2.62;1.40;;;19.60;59.30;;;;;;950868;146;27327;-73
2022/07/08 06:07:04;;;;;;;2.75;0.85;;;19.70;59.20;;;;;;950226;149;27408;-73
2022/07/08 06:09:31;;;;;;;1.07;0.70;;;19.80;59.10;;;;;;949700;149;27352;-73
2022/07/08 06:11:58;;;;;;;4.85;1.05;;;20.00;59.10;;;;;;950281;146;27339;-73
2022/07/08 06:14:24;;;;;;;3.25;1.12;;;20.10;59.00;;;;;;948597;146;27351;-72
2022/07/08 06:16:51;;;;;;;1.32;0.98;;;20.20;58.90;;;;;;951475;146;27325;-73
2022/07/08 06:19:17;;;;;;;1.98;1.05;;;20.40;58.70;;;;;;950811;146;27323;-73
2022/07/08 06:21:44;;;;;;;2.35;0.90;;;20.60;58.50;;;;;;949530;149;27313;-73
2022/07/08 06:24:11;;;;;;;4.00;1.20;;;20.70;58.40;;;;;;949043;146;27368;-72
2022/07/08 06:26:37;;;;;;;1.90;1.00;;;20.90;58.20;;;;;;949839;149;27710;-73
2022/07/08 06:29:04;;;;;;;2.72;1.02;;;21.00;57.90;;;;;;949469;146;27436;-73
2022/07/08 06:31:30;;;;;;;1.72;0.80;;;21.20;57.60;;;;;;951651;149;27266;-73
2022/07/08 06:33:58;;;;;;;1.98;1.00;;;21.30;57.20;;;;;;949300;149;27873;-72
2022/07/08 06:36:24;;;;;;;2.58;1.12;;;21.30;56.60;;;;;;947680;149;27341;-73
2022/07/08 06:38:50;;;;;;;2.47;1.05;;;21.40;56.50;;;;;;950075;149;27825;-73
2022/07/08 06:41:17;;;;;;;2.80;1.25;;;21.40;56.40;;;;;;950892;149;27256;-74
2022/07/08 06:43:43;;;;;;;2.27;0.98;;;21.50;56.30;;;;;;950333;146;27292;-72
2022/07/08 06:46:10;;;;;;;3.98;1.02;;;21.50;56.20;;;;;;944121;147;27373;-73
2022/07/08 06:48:36;;;;;;;2.35;1.05;;;21.60;56.10;;;;;;943886;149;27277;-72
2022/07/08 06:51:03;;;;;;;1.57;0.80;;;21.70;56.00;;;;;;944355;150;27419;-73
2022/07/08 06:55:56;;;;;;;2.83;1.10;;;21.90;55.80;;;;;;920333;150;27323;-73
2022/07/08 06:58:23;;;;;;;3.30;1.32;;;22.00;55.60;;;;;;943860;150;27277;-73
2022/07/08 07:00:49;;;;;;;1.57;1.27;;;22.00;55.20;;;;;;944465;150;27296;-73
2022/07/08 07:03:16;;;;;;;2.70;1.30;;;22.10;55.00;;;;;;945617;149;27320;-72
2022/07/08 07:05:43;;;;;;;2.27;0.80;;;22.20;54.90;;;;;;941647;150;27336;-74
2022/07/08 07:08:09;;;;;;;2.70;0.93;;;22.20;54.70;;;;;;942985;147;27294;-74
2022/07/08 07:10:36;;;;;;;3.02;1.35;;;22.20;54.50;;;;;;940804;150;27378;-74
2022/07/08 07:13:02;;;;;;;2.00;0.90;;;22.20;54.40;;;;;;946125;147;27375;-73
2022/07/08 07:15:29;;;;;;;2.75;1.15;;;22.20;54.40;;;;;;943489;149;27790;-73
2022/07/08 07:17:56;;;;;;;2.15;1.10;;;22.20;55.00;;;;;;943508;149;27356;-74
2022/07/08 07:20:22;;;;;;;3.35;1.20;;;22.30;54.30;;;;;;943245;150;27673;-73
2022/07/08 07:22:49;;;;;;;3.52;0.95;;;22.30;54.00;;;;;;942897;149;27349;-73
2022/07/08 07:25:16;;;;;;;1.00;0.85;;;22.30;53.90;;;;;;942846;150;27304;-73
2022/07/08 07:27:42;;;;;;;2.50;1.20;;;22.40;54.00;;;;;;942747;150;27275;-73
2022/07/08 07:30:09;;;;;;;3.12;0.95;;;22.50;53.90;;;;;;944329;150;27405;-74
2022/07/08 07:32:35;;;;;;;4.47;1.30;;;22.60;53.80;;;;;;942468;149;27352;-72
2022/07/08 07:35:02;;;;;;;1.60;0.65;;;22.70;53.90;;;;;;944263;147;27299;-73
2022/07/08 07:37:28;;;;;;;2.65;1.20;;;23.00;54.40;;;;;;939856;149;27302;-73
2022/07/08 07:39:55;;;;;;;1.70;1.20;;;23.50;55.40;;;;;;939300;150;27752;-73
2022/07/08 07:42:22;;;;;;;1.77;0.93;;;24.20;57.10;;;;;;943310;149;27335;-73
2022/07/08 07:44:48;;;;;;;2.12;1.00;;;25.10;56.40;;;;;;943439;147;27427;-74
2022/07/08 07:47:15;;;;;;;2.42;1.10;;;26.10;55.50;;;;;;943899;147;28103;-72
2022/07/08 07:49:41;;;;;;;2.37;1.20;;;27.10;54.10;;;;;;942023;147;27389;-73
2022/07/08 07:52:08;;;;;;;3.25;0.72;;;28.00;52.50;;;;;;944178;150;27372;-73
2022/07/08 07:54:35;;;;;;;2.10;1.00;;;28.80;52.10;;;;;;942531;149;27330;-73
2022/07/08 07:57:01;;;;;;;1.72;0.82;;;29.60;51.10;;;;;;943342;150;27378;-73
2022/07/08 07:59:28;;;;;;;1.82;1.02;;;30.30;49.30;;;;;;945732;148;27320;-74
2022/07/08 08:01:54;;;;;;;1.47;1.20;;;30.80;47.70;;;;;;942700;150;27323;-74
2022/07/08 08:04:21;;;;;;;2.42;1.12;;;31.20;46.20;;;;;;944361;150;27923;-74
2022/07/08 08:06:48;;;;;;;1.85;0.90;;;31.40;45.50;;;;;;944569;150;27303;-74
2022/07/08 08:09:14;;;;;;;4.17;1.40;;;31.40;44.40;;;;;;944803;150;27850;-73
2022/07/08 08:11:41;;;;;;;1.82;1.00;;;31.30;43.30;;;;;;941233;150;27446;-74
2022/07/08 08:14:07;;;;;;;1.98;0.85;;;31.10;42.90;;;;;;942071;150;28309;-73
2022/07/08 08:16:34;;;;;;;1.27;0.85;;;30.70;42.60;;;;;;943030;150;27293;-74
2022/07/08 08:19:00;;;;;;;2.35;1.17;;;30.40;42.40;;;;;;945047;149;27444;-72
2022/07/08 08:21:29;;;;;;;1.95;0.90;;;30.00;42.30;;;;;;944112;150;27344;-72
2022/07/08 08:23:54;;;;;;;2.33;1.50;;;29.60;42.00;;;;;;942577;150;27362;-73
2022/07/08 08:26:21;;;;;;;1.75;1.02;;;29.20;42.10;;;;;;944552;150;28255;-74
2022/07/08 08:28:47;;;;;;;2.37;1.30;;;28.70;42.30;;;;;;943803;150;27316;-73
2022/07/08 08:31:13;;;;;;;1.72;0.93;;;28.30;42.60;;;;;;943364;150;27370;-73
2022/07/08 08:33:40;;;;;;;2.33;1.05;;;27.90;42.70;;;;;;944788;150;27294;-72
2022/07/08 08:36:07;;;;;;;2.62;1.37;;;27.50;43.00;;;;;;944470;150;27463;-72
2022/07/08 08:38:33;;;;;;;2.47;1.30;;;27.10;43.30;;;;;;944394;150;27362;-74
2022/07/08 08:41:00;;;;;;;2.20;1.22;;;26.80;43.50;;;;;;942089;150;27279;-73
2022/07/08 08:43:26;;;;;;;1.55;1.05;;;26.50;43.60;;;;;;945993;149;27338;-73
2022/07/08 08:45:53;;;;;;;3.90;1.52;;;26.30;44.00;;;;;;946843;147;27351;-73
2022/07/08 08:48:22;;;;;;;2.72;1.00;;;26.10;44.40;;;;;;957439;147;27332;-72
2022/07/08 08:50:55;;;;;;;1.60;0.90;;;25.90;44.40;;;;;;959401;147;27354;-73
2022/07/08 08:53:24;;;;;;;2.22;1.00;;;25.80;44.50;;;;;;959233;147;27833;-73
2022/07/08 08:55:51;;;;;;;2.52;1.00;;;25.70;44.60;;;;;;959232;147;27236;-72
2022/07/08 08:58:17;;;;;;;4.37;1.30;;;25.60;44.90;;;;;;961023;147;27311;-72
2022/07/08 09:00:44;;;;;;;1.52;1.00;;;25.50;45.10;;;;;;961572;145;27423;-73
2022/07/08 09:03:10;;;;;;;1.45;1.00;;;25.50;45.20;;;;;;959525;147;27358;-73
2022/07/08 09:05:37;;;;;;;1.75;0.93;;;25.50;45.20;;;;;;961349;147;27394;-74
2022/07/08 09:08:04;;;;;;;2.37;1.00;;;25.60;45.30;;;;;;959085;147;27309;-73
2022/07/08 09:10:30;;;;;;;1.77;0.82;;;25.70;45.50;;;;;;959801;147;27396;-73
2022/07/08 09:13:06;;;;;;;3.17;1.00;;;25.90;45.60;;;;;;958721;147;27466;-72
2022/07/08 09:15:35;;;;;;;3.15;0.82;;;26.00;45.60;;;;;;959728;147;27465;-74
2022/07/08 09:18:02;;;;;;;2.08;1.20;;;26.20;45.50;;;;;;960374;147;27387;-73
2022/07/08 09:20:49;;;;;;;2.05;1.10;;;26.40;45.60;;;;;;960745;147;27303;-73
2022/07/08 09:23:24;;;;;;;1.95;0.72;;;26.60;45.20;;;;;;955064;147;27331;-73
2022/07/08 09:25:51;;;;;;;1.00;0.95;;;27.00;45.20;;;;;;959994;147;27350;-74
2022/07/08 09:28:29;;;;;;;2.02;1.17;;;27.40;45.60;;;;;;959858;145;27270;-73
2022/07/08 09:30:56;;;;;;;1.40;1.00;;;28.00;46.20;;;;;;950892;147;27335;-74
2022/07/08 09:33:23;;;;;;;1.87;1.22;;;28.70;46.20;;;;;;961266;147;27309;-73
2022/07/08 09:35:52;;;;;;;1.47;0.90;;;29.50;45.20;;;;;;959083;145;27402;-72
2022/07/08 09:38:18;;;;;;;1.37;0.93;;;30.40;44.80;;;;;;960047;147;27508;-73
2022/07/08 09:40:57;;;;;;;2.00;1.10;;;31.10;43.60;;;;;;958501;147;27311;-73
2022/07/08 09:43:24;;;;;;;1.80;0.85;;;31.80;42.60;;;;;;957538;147;27324;-73
2022/07/08 09:45:50;;;;;;;2.05;1.27;;;32.30;41.70;;;;;;960373;145;27404;-72
2022/07/08 09:48:17;;;;;;;2.40;1.02;;;32.70;40.70;;;;;;943624;147;27767;-72
2022/07/08 09:50:44;;;;;;;1.95;0.88;;;33.00;40.20;;;;;;944808;147;27351;-72
2022/07/08 09:53:19;;;;;;;1.15;0.95;;;33.30;39.70;;;;;;943782;149;27319;-73
2022/07/08 09:55:47;;;;;;;3.50;1.20;;;33.50;38.80;;;;;;944272;147;27354;-73
2022/07/08 09:58:13;;;;;;;2.47;1.17;;;33.60;38.20;;;;;;943050;150;27314;-72
2022/07/08 10:00:39;;;;;;;2.55;1.30;;;33.60;37.90;;;;;;941372;150;27415;-73
2022/07/08 10:03:06;;;;;;;2.27;0.90;;;33.50;37.50;;;;;;942905;147;27438;-73
2022/07/08 10:05:32;;;;;;;3.33;1.30;;;33.40;36.30;;;;;;942319;150;27826;-72
2022/07/08 10:07:59;;;;;;;1.52;0.90;;;33.20;36.10;;;;;;945697;150;27332;-73
2022/07/08 10:10:26;;;;;;;2.58;1.27;;;32.90;36.30;;;;;;943193;150;27349;-72
2022/07/08 10:12:58;;;;;;;1.92;1.00;;;32.60;36.30;;;;;;945193;150;27253;-73
2022/07/08 10:15:24;;;;;;;2.47;1.22;;;32.30;37.00;;;;;;942195;150;27348;-72
2022/07/08 10:17:51;;;;;;;1.50;0.80;;;32.10;37.70;;;;;;944705;150;27350;-72
2022/07/08 10:20:18;;;;;;;1.67;0.80;;;32.10;37.90;;;;;;942419;150;27720;-72
2022/07/08 10:22:44;;;;;;;3.10;1.25;;;32.10;37.80;;;;;;942809;150;27451;-73
2022/07/08 10:25:11;;;;;;;1.02;1.00;;;32.30;37.60;;;;;;943391;149;27298;-73
2022/07/08 10:27:37;;;;;;;1.85;0.95;;;32.40;37.20;;;;;;942950;147;27937;-72
2022/07/08 10:30:13;;;;;;;2.27;1.17;;;32.40;36.60;;;;;;944328;147;27329;-72
2022/07/08 10:32:39;;;;;;;3.67;1.50;;;32.30;36.20;;;;;;946659;147;27307;-73
2022/07/08 10:35:12;;;;;;;1.80;1.12;;;32.10;35.20;;;;;;944755;147;27313;-73
2022/07/08 10:37:51;;;;;;;2.85;1.17;;;31.80;35.30;;;;;;943374;150;27390;-72
2022/07/08 10:40:42;;;;;;;3.12;1.22;;;31.50;34.70;;;;;;942571;147;27392;-72
2022/07/08 10:43:21;;;;;;;2.17;1.00;;;31.10;35.00;;;;;;943807;150;27866;-72
2022/07/08 10:46:06;;;;;;;1.98;0.82;;;30.60;34.60;;;;;;944045;147;27374;-71
2022/07/08 10:48:34;;;;;;;3.55;1.40;;;30.10;34.70;;;;;;950530;146;27438;-71
2022/07/08 10:51:01;;;;;;;1.75;1.20;;;29.80;35.40;;;;;;943119;148;27407;-72
2022/07/08 10:53:28;;;;;;;3.70;1.00;;;29.50;35.90;;;;;;949837;149;27451;-71
2022/07/08 10:55:54;;;;;;;2.92;1.40;;;29.20;36.00;;;;;;946034;148;27385;-71
2022/07/08 10:58:21;;;;;;;3.22;1.12;;;29.00;36.20;;;;;;949373;147;27992;-72
2022/07/08 11:00:47;;;;;;;3.27;1.30;;;28.80;36.40;;;;;;949741;149;27434;-72
2022/07/08 11:03:14;;;;;;;1.35;1.22;;;28.50;36.60;;;;;;944743;149;27279;-72
2022/07/08 11:05:41;;;;;;;1.92;1.07;;;28.30;37.00;;;;;;950564;146;27343;-72
2022/07/08 11:08:19;;;;;;;2.80;1.02;;;28.10;37.20;;;;;;948575;149;27415;-71
2022/07/08 11:10:46;;;;;;;3.00;1.40;;;28.00;37.30;;;;;;951708;149;27441;-73
2022/07/08 11:13:12;;;;;;;1.75;1.10;;;27.90;37.60;;;;;;949810;149;27412;-72
2022/07/08 11:15:39;;;;;;;3.17;1.10;;;27.80;37.60;;;;;;948154;149;27317;-73
2022/07/08 11:18:06;;;;;;;3.52;1.32;;;27.70;37.60;;;;;;949822;149;27426;-72
2022/07/08 11:20:32;;;;;;;3.42;1.30;;;27.60;38.00;;;;;;951139;149;27308;-72
2022/07/08 11:22:59;;;;;;;2.08;1.00;;;27.50;38.30;;;;;;949798;148;27426;-72
2022/07/08 11:25:25;;;;;;;2.95;0.93;;;27.40;38.30;;;;;;947731;146;27422;-72
2022/07/08 11:27:52;;;;;;;4.50;1.30;;;27.40;38.40;;;;;;948776;148;28426;-72
2022/07/08 11:30:18;;;;;;;1.70;1.10;;;27.30;38.50;;;;;;950535;149;27322;-72
2022/07/08 11:32:45;;;;;;;2.72;1.30;;;27.30;38.60;;;;;;949978;149;27286;-72
2022/07/08 11:35:13;;;;;;;3.35;1.35;;;27.20;38.70;;;;;;949658;146;27268;-72
2022/07/08 11:37:41;;;;;;;2.27;1.30;;;27.30;38.60;;;;;;951293;149;27847;-72
2022/07/08 11:40:08;;;;;;;3.22;1.27;;;27.20;38.50;;;;;;949142;149;27316;-72
2022/07/08 11:42:40;;;;;;;2.12;1.22;;;27.20;38.60;;;;;;950292;149;27277;-72
2022/07/08 11:45:07;;;;;;;3.00;1.30;;;27.20;38.60;;;;;;949958;148;27343;-73
2022/07/08 11:47:33;;;;;;;2.98;1.00;;;27.20;38.60;;;;;;949831;146;27592;-72
2022/07/08 11:50:00;;;;;;;3.65;1.12;;;27.20;38.60;;;;;;942392;148;27430;-72
2022/07/08 11:52:27;;;;;;;3.35;1.50;;;27.10;38.90;;;;;;943755;149;28883;-72
2022/07/08 11:54:53;;;;;;;2.55;1.00;;;27.00;38.60;;;;;;943158;149;27274;-72
2022/07/08 11:57:20;;;;;;;0.80;0.80;;;27.00;38.70;;;;;;943575;150;27875;-72
2022/07/08 11:59:46;;;;;;;1.47;1.12;;;27.00;38.70;;;;;;944497;147;27395;-73
2022/07/08 12:02:13;;;;;;;2.20;1.22;;;26.90;38.60;;;;;;944751;147;27447;-72
2022/07/08 12:04:42;;;;;;;5.40;1.20;;;26.90;38.50;;;;;;942583;147;27372;-72
2022/07/08 12:07:24;;;;;;;1.82;1.10;;;26.80;38.40;;;;;;942399;147;27313;-72
2022/07/08 12:10:00;;;;;;;2.17;1.02;;;26.70;38.30;;;;;;943322;147;27436;-72
2022/07/08 12:12:26;;;;;;;2.10;0.90;;;26.60;38.60;;;;;;942929;149;27379;-72
2022/07/08 12:14:53;;;;;;;2.25;1.00;;;26.60;38.50;;;;;;943589;150;27429;-72
2022/07/08 12:17:25;;;;;;;2.98;1.37;;;26.50;38.60;;;;;;945661;147;27353;-72
2022/07/08 12:19:53;;;;;;;0.95;0.85;;;26.40;38.40;;;;;;943069;148;27467;-73
2022/07/08 12:22:19;;;;;;;1.10;0.72;;;26.40;38.70;;;;;;944403;148;27403;-73
2022/07/08 12:24:45;;;;;;;1.85;1.00;;;26.40;38.60;;;;;;939701;150;27387;-73
2022/07/08 12:27:12;;;;;;;3.22;0.85;;;26.40;38.70;;;;;;944775;150;27406;-72
2022/07/08 12:29:38;;;;;;;2.33;1.02;;;26.40;38.70;;;;;;943176;147;27334;-73
2022/07/08 12:32:07;;;;;;;1.70;0.95;;;26.40;38.80;;;;;;943968;150;27465;-73
2022/07/08 12:34:34;;;;;;;1.90;1.12;;;26.40;38.90;;;;;;944215;149;27329;-72
2022/07/08 12:37:18;;;;;;;1.10;1.00;;;26.50;38.80;;;;;;942896;147;27319;-73
2022/07/08 12:39:45;;;;;;;2.10;1.10;;;26.50;38.90;;;;;;943764;150;27438;-73
2022/07/08 12:42:12;;;;;;;2.42;0.95;;;26.60;39.10;;;;;;943252;149;27341;-72
2022/07/08 12:44:41;;;;;;;1.80;1.15;;;26.60;39.20;;;;;;944227;150;27345;-72
2022/07/08 12:47:08;;;;;;;4.17;0.95;;;26.60;39.30;;;;;;941794;147;27855;-73
2022/07/08 12:49:34;;;;;;;2.27;1.02;;;26.70;39.30;;;;;;944158;148;27373;-72
2022/07/08 12:52:01;;;;;;;2.00;0.90;;;26.80;39.50;;;;;;943686;147;27410;-73
2022/07/08 12:54:27;;;;;;;2.35;1.30;;;26.80;39.20;;;;;;942948;149;27353;-73
2022/07/08 12:56:55;;;;;;;1.85;1.02;;;26.90;39.10;;;;;;943128;149;27303;-73